sensor_id;sensor_type;location;lat;lon;timestamp;pressure;altitude;pressure_sealevel;temperature;humidity
47522;BME280;32291;52.010;4.446;2023-09-07T00:00:15;77786.56;;;-144.67;100.00
47522;BME280;32291;52.010;4.446;2023-09-07T00:01:18;77790.84;;;-144.67;100.00
47522;BME280;32291;52.010;4.446;2023-09-07T00:02:22;77786.56;;;-144.67;100.00
47522;BME280;32291;52.010;4.446;2023-09-07T00:03:30;77786.56;;;-144.67;100.00
47522;BME280;32291;52.010;4.446;2023-09-07T00:04:34;77786.56;;;-144.67;100.00
47522;BME280;32291;52.010;4.446;2023-09-07T00:05:36;77790.84;;;-144.67;100.00
47522;BME280;32291;52.010;4.446;2023-09-07T00:06:44;77788.72;;;-144.67;100.00
47522;BME280;32291;52.010;4.446;2023-09-07T00:07:47;77788.72;;;-144.67;100.00
47522;BME280;32291;52.010;4.446;2023-09-07T00:08:53;77786.56;;;-144.67;100.00
47522;BME280;32291;52.010;4.446;2023-09-07T00:10:15;77788.72;;;-144.67;100.00
47522;BME280;32291;52.010;4.446;2023-09-07T00:11:20;77788.72;;;-144.67;100.00
47522;BME280;32291;52.010;4.446;2023-09-07T00:12:27;77795.13;;;-144.67;100.00
47522;BME280;32291;52.010;4.446;2023-09-07T00:13:32;77793.00;;;-144.67;100.00
47522;BME280;32291;52.010;4.446;2023-09-07T00:14:35;77790.84;;;-144.67;100.00
47522;BME280;32291;52.010;4.446;2023-09-07T00:15:38;77795.13;;;-144.67;100.00
47522;BME280;32291;52.010;4.446;2023-09-07T00:16:44;77795.13;;;-144.67;100.00
47522;BME280;32291;52.010;4.446;2023-09-07T00:17:47;77799.41;;;-144.67;100.00
47522;BME280;32291;52.010;4.446;2023-09-07T00:18:51;77801.56;;;-144.67;100.00
47522;BME280;32291;52.010;4.446;2023-09-07T00:20:01;77807.97;;;-144.67;100.00
47522;BME280;32291;52.010;4.446;2023-09-07T00:21:15;77807.97;;;-144.67;100.00
47522;BME280;32291;52.010;4.446;2023-09-07T00:22:30;77810.13;;;-144.67;100.00
47522;BME280;32291;52.010;4.446;2023-09-07T00:23:40;77816.53;;;-144.67;100.00
47522;BME280;32291;52.010;4.446;2023-09-07T00:24:45;77807.97;;;-144.67;100.00
47522;BME280;32291;52.010;4.446;2023-09-07T00:25:49;77812.25;;;-144.67;100.00
47522;BME280;32291;52.010;4.446;2023-09-07T00:26:58;77812.25;;;-144.67;100.00
47522;BME280;32291;52.010;4.446;2023-09-07T00:28:01;77810.13;;;-144.67;100.00
47522;BME280;32291;52.010;4.446;2023-09-07T00:29:06;77816.53;;;-144.67;100.00
47522;BME280;32291;52.010;4.446;2023-09-07T00:30:12;77820.84;;;-144.67;100.00
47522;BME280;32291;52.010;4.446;2023-09-07T00:31:16;77818.69;;;-144.67;100.00
47522;BME280;32291;52.010;4.446;2023-09-07T00:32:18;77818.69;;;-144.67;100.00
47522;BME280;32291;52.010;4.446;2023-09-07T00:33:24;77820.84;;;-144.67;100.00
47522;BME280;32291;52.010;4.446;2023-09-07T00:34:27;77820.84;;;-144.67;100.00
47522;BME280;32291;52.010;4.446;2023-09-07T00:35:30;77825.09;;;-144.67;100.00
47522;BME280;32291;52.010;4.446;2023-09-07T00:36:32;77827.25;;;-144.67;100.00
47522;BME280;32291;52.010;4.446;2023-09-07T00:37:37;77831.53;;;-144.67;100.00
47522;BME280;32291;52.010;4.446;2023-09-07T00:38:43;77825.09;;;-144.67;100.00
47522;BME280;32291;52.010;4.446;2023-09-07T00:39:46;77827.25;;;-144.67;100.00
47522;BME280;32291;52.010;4.446;2023-09-07T00:40:56;77833.66;;;-144.67;100.00
47522;BME280;32291;52.010;4.446;2023-09-07T00:42:06;77831.53;;;-144.67;100.00
47522;BME280;32291;52.010;4.446;2023-09-07T00:43:11;77825.09;;;-144.67;100.00
47522;BME280;32291;52.010;4.446;2023-09-07T00:44:13;77825.09;;;-144.67;100.00
47522;BME280;32291;52.010;4.446;2023-09-07T00:45:16;77833.66;;;-144.67;100.00
47522;BME280;32291;52.010;4.446;2023-09-07T00:46:21;77833.66;;;-144.67;100.00
47522;BME280;32291;52.010;4.446;2023-09-07T00:47:26;77837.97;;;-144.67;100.00
47522;BME280;32291;52.010;4.446;2023-09-07T00:48:29;77837.97;;;-144.67;100.00
47522;BME280;32291;52.010;4.446;2023-09-07T00:49:32;77846.50;;;-144.67;100.00
47522;BME280;32291;52.010;4.446;2023-09-07T00:50:35;77844.38;;;-144.67;100.00
47522;BME280;32291;52.010;4.446;2023-09-07T00:51:41;77846.50;;;-144.67;100.00
47522;BME280;32291;52.010;4.446;2023-09-07T00:52:49;77848.66;;;-144.67;100.00
47522;BME280;32291;52.010;4.446;2023-09-07T00:54:00;77857.22;;;-144.67;100.00
47522;BME280;32291;52.010;4.446;2023-09-07T00:55:04;77850.81;;;-144.67;100.00
47522;BME280;32291;52.010;4.446;2023-09-07T00:56:07;77846.50;;;-144.67;100.00
47522;BME280;32291;52.010;4.446;2023-09-07T00:57:13;77850.81;;;-144.67;100.00
47522;BME280;32291;52.010;4.446;2023-09-07T00:58:19;77844.38;;;-144.67;100.00
47522;BME280;32291;52.010;4.446;2023-09-07T00:59:29;77852.94;;;-144.67;100.00
47522;BME280;32291;52.010;4.446;2023-09-07T01:00:36;77855.09;;;-144.67;100.00
47522;BME280;32291;52.010;4.446;2023-09-07T01:01:42;77846.50;;;-144.67;100.00
47522;BME280;32291;52.010;4.446;2023-09-07T01:02:46;77850.81;;;-144.67;100.00
47522;BME280;32291;52.010;4.446;2023-09-07T01:04:04;77846.50;;;-144.67;100.00
47522;BME280;32291;52.010;4.446;2023-09-07T01:05:09;77846.50;;;-144.67;100.00
47522;BME280;32291;52.010;4.446;2023-09-07T01:06:25;77850.81;;;-144.67;100.00
47522;BME280;32291;52.010;4.446;2023-09-07T01:07:40;77850.81;;;-144.67;100.00
47522;BME280;32291;52.010;4.446;2023-09-07T01:08:51;77850.81;;;-144.67;100.00
47522;BME280;32291;52.010;4.446;2023-09-07T01:10:01;77850.81;;;-144.67;100.00
47522;BME280;32291;52.010;4.446;2023-09-07T01:11:15;77850.81;;;-144.67;100.00
47522;BME280;32291;52.010;4.446;2023-09-07T01:12:18;77852.94;;;-144.67;100.00
47522;BME280;32291;52.010;4.446;2023-09-07T01:13:23;77859.38;;;-144.67;100.00
47522;BME280;32291;52.010;4.446;2023-09-07T01:14:26;77855.09;;;-144.67;100.00
47522;BME280;32291;52.010;4.446;2023-09-07T01:15:29;77857.22;;;-144.67;100.00
47522;BME280;32291;52.010;4.446;2023-09-07T01:16:33;77859.38;;;-144.67;100.00
47522;BME280;32291;52.010;4.446;2023-09-07T01:17:43;77855.09;;;-144.67;100.00
47522;BME280;32291;52.010;4.446;2023-09-07T01:18:46;77855.09;;;-144.67;100.00
47522;BME280;32291;52.010;4.446;2023-09-07T01:19:53;77859.38;;;-144.67;100.00
47522;BME280;32291;52.010;4.446;2023-09-07T01:21:08;77863.63;;;-144.67;100.00
47522;BME280;32291;52.010;4.446;2023-09-07T01:22:13;77863.63;;;-144.67;100.00
47522;BME280;32291;52.010;4.446;2023-09-07T01:23:19;77865.78;;;-144.67;100.00
47522;BME280;32291;52.010;4.446;2023-09-07T01:24:23;77859.38;;;-144.67;100.00
47522;BME280;32291;52.010;4.446;2023-09-07T01:25:31;77861.50;;;-144.67;100.00
47522;BME280;32291;52.010;4.446;2023-09-07T01:26:37;77859.38;;;-144.67;100.00
47522;BME280;32291;52.010;4.446;2023-09-07T01:27:44;77857.22;;;-144.67;100.00
47522;BME280;32291;52.010;4.446;2023-09-07T01:28:59;77859.38;;;-144.67;100.00
47522;BME280;32291;52.010;4.446;2023-09-07T01:30:13;77857.22;;;-144.67;100.00
47522;BME280;32291;52.010;4.446;2023-09-07T01:31:18;77855.09;;;-144.67;100.00
47522;BME280;32291;52.010;4.446;2023-09-07T01:32:28;77859.38;;;-144.67;100.00
47522;BME280;32291;52.010;4.446;2023-09-07T01:33:31;77863.63;;;-144.67;100.00
47522;BME280;32291;52.010;4.446;2023-09-07T01:34:38;77863.63;;;-144.67;100.00
47522;BME280;32291;52.010;4.446;2023-09-07T01:35:43;77859.38;;;-144.67;100.00
47522;BME280;32291;52.010;4.446;2023-09-07T01:36:58;77863.63;;;-144.67;100.00
47522;BME280;32291;52.010;4.446;2023-09-07T01:38:01;77863.63;;;-144.67;100.00
47522;BME280;32291;52.010;4.446;2023-09-07T01:39:08;77867.94;;;-144.67;100.00
47522;BME280;32291;52.010;4.446;2023-09-07T01:40:18;77874.34;;;-144.67;100.00
47522;BME280;32291;52.010;4.446;2023-09-07T01:41:26;77874.34;;;-144.67;100.00
47522;BME280;32291;52.010;4.446;2023-09-07T01:42:36;77876.50;;;-144.67;100.00
47522;BME280;32291;52.010;4.446;2023-09-07T01:43:42;77880.78;;;-144.67;100.00
47522;BME280;32291;52.010;4.446;2023-09-07T01:46:31;77880.78;;;-144.67;100.00
47522;BME280;32291;52.010;4.446;2023-09-07T01:47:47;77885.06;;;-144.67;100.00
47522;BME280;32291;52.010;4.446;2023-09-07T01:48:50;77895.75;;;-144.67;100.00
47522;BME280;32291;52.010;4.446;2023-09-07T01:50:02;77893.63;;;-144.67;100.00
47522;BME280;32291;52.010;4.446;2023-09-07T01:51:12;77889.34;;;-144.67;100.00
47522;BME280;32291;52.010;4.446;2023-09-07T01:52:15;77897.91;;;-144.67;100.00
47522;BME280;32291;52.010;4.446;2023-09-07T01:53:18;77902.19;;;-144.67;100.00
47522;BME280;32291;52.010;4.446;2023-09-07T01:54:23;77895.75;;;-144.67;100.00
47522;BME280;32291;52.010;4.446;2023-09-07T01:55:31;77897.91;;;-144.67;100.00
47522;BME280;32291;52.010;4.446;2023-09-07T01:56:37;77902.19;;;-144.67;100.00
47522;BME280;32291;52.010;4.446;2023-09-07T01:57:41;77900.03;;;-144.67;100.00
47522;BME280;32291;52.010;4.446;2023-09-07T01:58:44;77902.19;;;-144.67;100.00
47522;BME280;32291;52.010;4.446;2023-09-07T01:59:47;77906.47;;;-144.67;100.00
47522;BME280;32291;52.010;4.446;2023-09-07T02:00:52;77908.59;;;-144.67;100.00
47522;BME280;32291;52.010;4.446;2023-09-07T02:01:59;77910.75;;;-144.67;100.00
47522;BME280;32291;52.010;4.446;2023-09-07T02:03:01;77915.03;;;-144.67;100.00
47522;BME280;32291;52.010;4.446;2023-09-07T02:04:04;77912.88;;;-144.67;100.00
47522;BME280;32291;52.010;4.446;2023-09-07T02:05:07;77915.03;;;-144.67;100.00
47522;BME280;32291;52.010;4.446;2023-09-07T02:06:11;77919.31;;;-144.67;100.00
47522;BME280;32291;52.010;4.446;2023-09-07T02:07:13;77923.59;;;-144.67;100.00
47522;BME280;32291;52.010;4.446;2023-09-07T02:08:20;77923.59;;;-144.67;100.00
47522;BME280;32291;52.010;4.446;2023-09-07T02:09:23;77925.72;;;-144.67;100.00
47522;BME280;32291;52.010;4.446;2023-09-07T02:10:36;77925.72;;;-144.67;100.00
47522;BME280;32291;52.010;4.446;2023-09-07T02:11:42;77923.59;;;-144.67;100.00
47522;BME280;32291;52.010;4.446;2023-09-07T02:12:49;77927.88;;;-144.67;100.00
47522;BME280;32291;52.010;4.446;2023-09-07T02:13:52;77934.28;;;-144.67;100.00
47522;BME280;32291;52.010;4.446;2023-09-07T02:15:02;77932.16;;;-144.67;100.00
47522;BME280;32291;52.010;4.446;2023-09-07T02:16:06;77936.44;;;-144.67;100.00
47522;BME280;32291;52.010;4.446;2023-09-07T02:17:08;77932.16;;;-144.67;100.00
47522;BME280;32291;52.010;4.446;2023-09-07T02:18:11;77930.00;;;-144.67;100.00
47522;BME280;32291;52.010;4.446;2023-09-07T02:19:14;77932.16;;;-144.67;100.00
47522;BME280;32291;52.010;4.446;2023-09-07T02:20:19;77932.16;;;-144.67;100.00
47522;BME280;32291;52.010;4.446;2023-09-07T02:21:22;77932.16;;;-144.67;100.00
47522;BME280;32291;52.010;4.446;2023-09-07T02:22:27;77940.72;;;-144.67;100.00
47522;BME280;32291;52.010;4.446;2023-09-07T02:23:33;77938.56;;;-144.67;100.00
47522;BME280;32291;52.010;4.446;2023-09-07T02:24:38;77932.16;;;-144.67;100.00
47522;BME280;32291;52.010;4.446;2023-09-07T02:25:41;77930.00;;;-144.67;100.00
47522;BME280;32291;52.010;4.446;2023-09-07T02:26:47;77932.16;;;-144.67;100.00
47522;BME280;32291;52.010;4.446;2023-09-07T02:28:06;77934.28;;;-144.67;100.00
47522;BME280;32291;52.010;4.446;2023-09-07T02:29:12;77932.16;;;-144.67;100.00
47522;BME280;32291;52.010;4.446;2023-09-07T02:30:14;77938.56;;;-144.67;100.00
47522;BME280;32291;52.010;4.446;2023-09-07T02:31:20;77930.00;;;-144.67;100.00
47522;BME280;32291;52.010;4.446;2023-09-07T02:32:23;77932.16;;;-144.67;100.00
47522;BME280;32291;52.010;4.446;2023-09-07T02:33:26;77936.44;;;-144.67;100.00
47522;BME280;32291;52.010;4.446;2023-09-07T02:34:31;77938.56;;;-144.67;100.00
47522;BME280;32291;52.010;4.446;2023-09-07T02:35:37;77936.44;;;-144.67;100.00
47522;BME280;32291;52.010;4.446;2023-09-07T02:36:44;77936.44;;;-144.67;100.00
47522;BME280;32291;52.010;4.446;2023-09-07T02:37:49;77934.28;;;-144.67;100.00
47522;BME280;32291;52.010;4.446;2023-09-07T02:38:52;77936.44;;;-144.67;100.00
47522;BME280;32291;52.010;4.446;2023-09-07T02:39:55;77932.16;;;-144.67;100.00
47522;BME280;32291;52.010;4.446;2023-09-07T02:41:03;77936.44;;;-144.67;100.00
47522;BME280;32291;52.010;4.446;2023-09-07T02:42:11;77940.72;;;-144.67;100.00
47522;BME280;32291;52.010;4.446;2023-09-07T02:43:18;77936.44;;;-144.67;100.00
47522;BME280;32291;52.010;4.446;2023-09-07T02:44:26;77940.72;;;-144.67;100.00
47522;BME280;32291;52.010;4.446;2023-09-07T02:45:29;77940.72;;;-144.67;100.00
47522;BME280;32291;52.010;4.446;2023-09-07T02:46:34;77940.72;;;-144.67;100.00
47522;BME280;32291;52.010;4.446;2023-09-07T02:47:42;77940.72;;;-144.67;100.00
47522;BME280;32291;52.010;4.446;2023-09-07T02:48:49;77936.44;;;-144.67;100.00
47522;BME280;32291;52.010;4.446;2023-09-07T02:50:00;77945.00;;;-144.67;100.00
47522;BME280;32291;52.010;4.446;2023-09-07T02:51:04;77945.00;;;-144.67;100.00
47522;BME280;32291;52.010;4.446;2023-09-07T02:52:07;77938.56;;;-144.67;100.00
47522;BME280;32291;52.010;4.446;2023-09-07T02:53:12;77945.00;;;-144.67;100.00
47522;BME280;32291;52.010;4.446;2023-09-07T02:54:30;77951.41;;;-144.67;100.00
47522;BME280;32291;52.010;4.446;2023-09-07T02:55:33;77953.56;;;-144.67;100.00
47522;BME280;32291;52.010;4.446;2023-09-07T02:56:37;77953.56;;;-144.67;100.00
47522;BME280;32291;52.010;4.446;2023-09-07T02:57:45;77955.69;;;-144.67;100.00
47522;BME280;32291;52.010;4.446;2023-09-07T02:58:51;77951.41;;;-144.67;100.00
47522;BME280;32291;52.010;4.446;2023-09-07T02:59:53;77957.84;;;-144.67;100.00
47522;BME280;32291;52.010;4.446;2023-09-07T03:00:59;77962.13;;;-144.67;100.00
47522;BME280;32291;52.010;4.446;2023-09-07T03:02:03;77962.13;;;-144.67;100.00
47522;BME280;32291;52.010;4.446;2023-09-07T03:03:08;77966.41;;;-144.67;100.00
47522;BME280;32291;52.010;4.446;2023-09-07T03:04:14;77966.41;;;-144.67;100.00
47522;BME280;32291;52.010;4.446;2023-09-07T03:05:17;77966.41;;;-144.67;100.00
47522;BME280;32291;52.010;4.446;2023-09-07T03:06:23;77968.53;;;-144.67;100.00
47522;BME280;32291;52.010;4.446;2023-09-07T03:07:45;77966.41;;;-144.67;100.00
47522;BME280;32291;52.010;4.446;2023-09-07T03:08:51;77970.69;;;-144.67;100.00
47522;BME280;32291;52.010;4.446;2023-09-07T03:09:57;77970.69;;;-144.67;100.00
47522;BME280;32291;52.010;4.446;2023-09-07T03:11:04;77970.69;;;-144.67;100.00
47522;BME280;32291;52.010;4.446;2023-09-07T03:12:12;77974.97;;;-144.67;100.00
47522;BME280;32291;52.010;4.446;2023-09-07T03:13:19;77979.25;;;-144.67;100.00
47522;BME280;32291;52.010;4.446;2023-09-07T03:14:24;77979.25;;;-144.67;100.00
47522;BME280;32291;52.010;4.446;2023-09-07T03:15:32;77981.38;;;-144.67;100.00
47522;BME280;32291;52.010;4.446;2023-09-07T03:16:36;77981.38;;;-144.67;100.00
47522;BME280;32291;52.010;4.446;2023-09-07T03:17:41;77981.38;;;-144.67;100.00
47522;BME280;32291;52.010;4.446;2023-09-07T03:18:43;77983.53;;;-144.67;100.00
47522;BME280;32291;52.010;4.446;2023-09-07T03:19:46;77985.66;;;-144.67;100.00
47522;BME280;32291;52.010;4.446;2023-09-07T03:20:59;77983.53;;;-144.67;100.00
47522;BME280;32291;52.010;4.446;2023-09-07T03:22:04;77983.53;;;-144.67;100.00
47522;BME280;32291;52.010;4.446;2023-09-07T03:23:06;77985.66;;;-144.67;100.00
47522;BME280;32291;52.010;4.446;2023-09-07T03:24:09;77983.53;;;-144.67;100.00
47522;BME280;32291;52.010;4.446;2023-09-07T03:25:13;77983.53;;;-144.67;100.00
47522;BME280;32291;52.010;4.446;2023-09-07T03:26:16;77979.25;;;-144.67;100.00
47522;BME280;32291;52.010;4.446;2023-09-07T03:27:18;77977.09;;;-144.67;100.00
47522;BME280;32291;52.010;4.446;2023-09-07T03:28:27;77979.25;;;-144.67;100.00
47522;BME280;32291;52.010;4.446;2023-09-07T03:29:35;77977.09;;;-144.67;100.00
47522;BME280;32291;52.010;4.446;2023-09-07T03:30:42;77981.38;;;-144.67;100.00
47522;BME280;32291;52.010;4.446;2023-09-07T03:31:44;77987.81;;;-144.67;100.00
47522;BME280;32291;52.010;4.446;2023-09-07T03:32:48;77981.38;;;-144.67;100.00
47522;BME280;32291;52.010;4.446;2023-09-07T03:33:56;77985.66;;;-144.67;100.00
47522;BME280;32291;52.010;4.446;2023-09-07T03:35:04;77979.25;;;-144.67;100.00
47522;BME280;32291;52.010;4.446;2023-09-07T03:36:11;77987.81;;;-144.67;100.00
47522;BME280;32291;52.010;4.446;2023-09-07T03:37:15;77985.66;;;-144.67;100.00
47522;BME280;32291;52.010;4.446;2023-09-07T03:38:18;77983.53;;;-144.67;100.00
47522;BME280;32291;52.010;4.446;2023-09-07T03:39:22;77992.09;;;-144.67;100.00
47522;BME280;32291;52.010;4.446;2023-09-07T03:40:28;77992.09;;;-144.67;100.00
47522;BME280;32291;52.010;4.446;2023-09-07T03:41:34;77987.81;;;-144.67;100.00
47522;BME280;32291;52.010;4.446;2023-09-07T03:42:40;77996.38;;;-144.67;100.00
47522;BME280;32291;52.010;4.446;2023-09-07T03:43:48;77996.38;;;-144.67;100.00
47522;BME280;32291;52.010;4.446;2023-09-07T03:44:51;77994.22;;;-144.67;100.00
47522;BME280;32291;52.010;4.446;2023-09-07T03:45:58;77996.38;;;-144.67;100.00
47522;BME280;32291;52.010;4.446;2023-09-07T03:47:04;77996.38;;;-144.67;100.00
47522;BME280;32291;52.010;4.446;2023-09-07T03:48:07;77996.38;;;-144.67;100.00
47522;BME280;32291;52.010;4.446;2023-09-07T03:49:12;78002.78;;;-144.67;100.00
47522;BME280;32291;52.010;4.446;2023-09-07T03:50:15;78000.66;;;-144.67;100.00
47522;BME280;32291;52.010;4.446;2023-09-07T03:51:17;78004.94;;;-144.67;100.00
47522;BME280;32291;52.010;4.446;2023-09-07T03:52:23;77996.38;;;-144.67;100.00
47522;BME280;32291;52.010;4.446;2023-09-07T03:53:26;78007.06;;;-144.67;100.00
47522;BME280;32291;52.010;4.446;2023-09-07T03:54:32;78004.94;;;-144.67;100.00
47522;BME280;32291;52.010;4.446;2023-09-07T03:55:43;78002.78;;;-144.67;100.00
47522;BME280;32291;52.010;4.446;2023-09-07T03:56:46;78004.94;;;-144.67;100.00
47522;BME280;32291;52.010;4.446;2023-09-07T03:57:49;78004.94;;;-144.67;100.00
47522;BME280;32291;52.010;4.446;2023-09-07T03:58:52;78013.50;;;-144.67;100.00
47522;BME280;32291;52.010;4.446;2023-09-07T03:59:58;78009.22;;;-144.67;100.00
47522;BME280;32291;52.010;4.446;2023-09-07T04:01:01;78019.91;;;-144.67;100.00
47522;BME280;32291;52.010;4.446;2023-09-07T04:02:07;78017.78;;;-144.67;100.00
47522;BME280;32291;52.010;4.446;2023-09-07T04:03:13;78013.50;;;-144.67;100.00
47522;BME280;32291;52.010;4.446;2023-09-07T04:04:15;78019.91;;;-144.67;100.00
47522;BME280;32291;52.010;4.446;2023-09-07T04:05:26;78017.78;;;-144.67;100.00
47522;BME280;32291;52.010;4.446;2023-09-07T04:06:30;78022.06;;;-144.67;100.00
47522;BME280;32291;52.010;4.446;2023-09-07T04:07:33;78017.78;;;-144.67;100.00
47522;BME280;32291;52.010;4.446;2023-09-07T04:08:37;78019.91;;;-144.67;100.00
47522;BME280;32291;52.010;4.446;2023-09-07T04:09:40;78022.06;;;-144.67;100.00
47522;BME280;32291;52.010;4.446;2023-09-07T04:10:42;78017.78;;;-144.67;100.00
47522;BME280;32291;52.010;4.446;2023-09-07T04:11:45;78024.19;;;-144.67;100.00
47522;BME280;32291;52.010;4.446;2023-09-07T04:12:48;78026.34;;;-144.67;100.00
47522;BME280;32291;52.010;4.446;2023-09-07T04:13:50;78030.63;;;-144.67;100.00
47522;BME280;32291;52.010;4.446;2023-09-07T04:14:53;78026.34;;;-144.67;100.00
47522;BME280;32291;52.010;4.446;2023-09-07T04:16:08;78026.34;;;-144.67;100.00
47522;BME280;32291;52.010;4.446;2023-09-07T04:17:14;78030.63;;;-144.67;100.00
47522;BME280;32291;52.010;4.446;2023-09-07T04:18:19;78030.63;;;-144.67;100.00
47522;BME280;32291;52.010;4.446;2023-09-07T04:19:30;78034.91;;;-144.67;100.00
47522;BME280;32291;52.010;4.446;2023-09-07T04:20:33;78039.19;;;-144.67;100.00
47522;BME280;32291;52.010;4.446;2023-09-07T04:21:39;78030.63;;;-144.67;100.00
47522;BME280;32291;52.010;4.446;2023-09-07T04:22:45;78034.91;;;-144.67;100.00
47522;BME280;32291;52.010;4.446;2023-09-07T04:23:47;78032.75;;;-144.67;100.00
47522;BME280;32291;52.010;4.446;2023-09-07T04:25:04;78034.91;;;-144.67;100.00
47522;BME280;32291;52.010;4.446;2023-09-07T04:26:11;78039.19;;;-144.67;100.00
47522;BME280;32291;52.010;4.446;2023-09-07T04:27:14;78039.19;;;-144.67;100.00
47522;BME280;32291;52.010;4.446;2023-09-07T04:28:19;78047.75;;;-144.67;100.00
47522;BME280;32291;52.010;4.446;2023-09-07T04:29:31;78043.47;;;-144.67;100.00
47522;BME280;32291;52.010;4.446;2023-09-07T04:30:38;78043.47;;;-144.67;100.00
47522;BME280;32291;52.010;4.446;2023-09-07T04:31:41;78049.88;;;-144.67;100.00
47522;BME280;32291;52.010;4.446;2023-09-07T04:32:44;78047.75;;;-144.67;100.00
47522;BME280;32291;52.010;4.446;2023-09-07T04:33:47;78052.03;;;-144.67;100.00
47522;BME280;32291;52.010;4.446;2023-09-07T04:34:55;78052.03;;;-144.67;100.00
47522;BME280;32291;52.010;4.446;2023-09-07T04:36:15;78054.16;;;-144.67;100.00
47522;BME280;32291;52.010;4.446;2023-09-07T04:37:18;78062.72;;;-144.67;100.00
47522;BME280;32291;52.010;4.446;2023-09-07T04:38:22;78056.31;;;-144.67;100.00
47522;BME280;32291;52.010;4.446;2023-09-07T04:39:30;78064.88;;;-144.67;100.00
47522;BME280;32291;52.010;4.446;2023-09-07T04:40:32;78060.59;;;-144.67;100.00
47522;BME280;32291;52.010;4.446;2023-09-07T04:41:35;78064.88;;;-144.67;100.00
47522;BME280;32291;52.010;4.446;2023-09-07T04:42:38;78064.88;;;-144.67;100.00
47522;BME280;32291;52.010;4.446;2023-09-07T04:43:43;78060.59;;;-144.67;100.00
47522;BME280;32291;52.010;4.446;2023-09-07T04:44:49;78060.59;;;-144.67;100.00
47522;BME280;32291;52.010;4.446;2023-09-07T04:45:51;78069.16;;;-144.67;100.00
47522;BME280;32291;52.010;4.446;2023-09-07T04:46:56;78073.44;;;-144.67;100.00
47522;BME280;32291;52.010;4.446;2023-09-07T04:48:05;78071.31;;;-144.67;100.00
47522;BME280;32291;52.010;4.446;2023-09-07T04:49:08;78073.44;;;-144.67;100.00
47522;BME280;32291;52.010;4.446;2023-09-07T04:50:17;78073.44;;;-144.67;100.00
47522;BME280;32291;52.010;4.446;2023-09-07T04:51:20;78079.88;;;-144.67;100.00
47522;BME280;32291;52.010;4.446;2023-09-07T04:52:26;78082.00;;;-144.67;100.00
47522;BME280;32291;52.010;4.446;2023-09-07T04:53:31;78077.72;;;-144.67;100.00
47522;BME280;32291;52.010;4.446;2023-09-07T04:54:33;78084.16;;;-144.67;100.00
47522;BME280;32291;52.010;4.446;2023-09-07T04:55:44;78084.16;;;-144.67;100.00
47522;BME280;32291;52.010;4.446;2023-09-07T04:56:47;78084.16;;;-144.67;100.00
47522;BME280;32291;52.010;4.446;2023-09-07T04:57:56;78090.56;;;-144.67;100.00
47522;BME280;32291;52.010;4.446;2023-09-07T04:59:02;78097.00;;;-144.67;100.00
47522;BME280;32291;52.010;4.446;2023-09-07T05:00:12;78099.13;;;-144.67;100.00
47522;BME280;32291;52.010;4.446;2023-09-07T05:01:17;78101.28;;;-144.67;100.00
47522;BME280;32291;52.010;4.446;2023-09-07T05:02:19;78094.84;;;-144.67;100.00
47522;BME280;32291;52.010;4.446;2023-09-07T05:03:21;78097.00;;;-144.67;100.00
47522;BME280;32291;52.010;4.446;2023-09-07T05:04:23;78099.13;;;-144.67;100.00
47522;BME280;32291;52.010;4.446;2023-09-07T05:05:31;78097.00;;;-144.67;100.00
47522;BME280;32291;52.010;4.446;2023-09-07T05:06:34;78103.41;;;-144.67;100.00
47522;BME280;32291;52.010;4.446;2023-09-07T05:07:42;78101.28;;;-144.67;100.00
47522;BME280;32291;52.010;4.446;2023-09-07T05:08:47;78097.00;;;-144.67;100.00
47522;BME280;32291;52.010;4.446;2023-09-07T05:09:53;78107.69;;;-144.67;100.00
47522;BME280;32291;52.010;4.446;2023-09-07T05:11:05;78107.69;;;-144.67;100.00
47522;BME280;32291;52.010;4.446;2023-09-07T05:12:07;78111.97;;;-144.67;100.00
47522;BME280;32291;52.010;4.446;2023-09-07T05:13:09;78099.13;;;-144.67;100.00
47522;BME280;32291;52.010;4.446;2023-09-07T05:14:11;78107.69;;;-144.67;100.00
47522;BME280;32291;52.010;4.446;2023-09-07T05:15:18;78107.69;;;-144.67;100.00
47522;BME280;32291;52.010;4.446;2023-09-07T05:16:21;78109.84;;;-144.67;100.00
47522;BME280;32291;52.010;4.446;2023-09-07T05:17:25;78111.97;;;-144.67;100.00
47522;BME280;32291;52.010;4.446;2023-09-07T05:18:28;78118.41;;;-144.67;100.00
47522;BME280;32291;52.010;4.446;2023-09-07T05:19:31;78116.25;;;-144.67;100.00
47522;BME280;32291;52.010;4.446;2023-09-07T05:20:33;78107.69;;;-144.67;100.00
47522;BME280;32291;52.010;4.446;2023-09-07T05:21:36;78111.97;;;-144.67;100.00
47522;BME280;32291;52.010;4.446;2023-09-07T05:22:38;78116.25;;;-144.67;100.00
47522;BME280;32291;52.010;4.446;2023-09-07T05:23:44;78116.25;;;-144.67;100.00
47522;BME280;32291;52.010;4.446;2023-09-07T05:24:53;78120.53;;;-144.67;100.00
47522;BME280;32291;52.010;4.446;2023-09-07T05:25:59;78114.13;;;-144.67;100.00
47522;BME280;32291;52.010;4.446;2023-09-07T05:27:01;78116.25;;;-144.67;100.00
47522;BME280;32291;52.010;4.446;2023-09-07T05:28:05;78105.56;;;-144.67;100.00
47522;BME280;32291;52.010;4.446;2023-09-07T05:29:13;78107.69;;;-144.67;100.00
47522;BME280;32291;52.010;4.446;2023-09-07T05:30:15;78109.84;;;-144.67;100.00
47522;BME280;32291;52.010;4.446;2023-09-07T05:31:18;78107.69;;;-144.67;100.00
47522;BME280;32291;52.010;4.446;2023-09-07T05:32:25;78103.41;;;-144.67;100.00
47522;BME280;32291;52.010;4.446;2023-09-07T05:33:35;78099.13;;;-144.67;100.00
47522;BME280;32291;52.010;4.446;2023-09-07T05:34:37;78101.28;;;-144.67;100.00
47522;BME280;32291;52.010;4.446;2023-09-07T05:35:43;78105.56;;;-144.67;100.00
47522;BME280;32291;52.010;4.446;2023-09-07T05:36:51;78111.97;;;-144.67;100.00